Time;durP1;ratioP1;P1;durP2;ratioP2;P2;SDS_P1;SDS_P2;PMS_P1;PMS_P2;Temp;Humidity;BMP_temperature;BMP_pressure;BME280_temperature;BME280_humidity;BME280_pressure;Samples;Min_cycle;Max_cycle;Signal;HPM_P1;HPM_P2
2023/09/11 00:02:42;;;;;;;15.30;12.80;;;24.60;1.00;;;;;;20518413;28;20043;-42
2023/09/11 00:12:43;;;;;;;16.55;12.57;;;24.50;1.00;;;;;;20516990;28;20051;-42
2023/09/11 00:22:43;;;;;;;15.30;12.45;;;24.40;1.00;;;;;;20515160;28;20039;-42
2023/09/11 00:32:44;;;;;;;15.80;12.27;;;24.40;1.00;;;;;;20516776;28;20054;-42
2023/09/11 00:42:45;;;;;;;17.00;13.48;;;24.30;1.00;;;;;;20518607;28;20455;-42
2023/09/11 00:52:46;;;;;;;15.80;11.13;;;24.20;1.00;;;;;;20515991;28;20102;-42
2023/09/11 01:02:48;;;;;;;14.43;11.90;;;24.00;1.00;;;;;;20511878;28;20137;-43
2023/09/11 01:12:48;;;;;;;16.73;14.75;;;23.90;1.00;;;;;;20511481;28;20047;-42
2023/09/11 01:23:23;;;;;;;17.47;13.40;;;23.70;1.00;;;;;;20512004;28;20492;-43
2023/09/11 01:33:23;;;;;;;14.60;13.02;;;23.40;1.00;;;;;;20510834;28;20047;-42
2023/09/11 01:43:28;;;;;;;17.35;15.00;;;23.20;1.00;;;;;;20510320;28;20097;-42
2023/09/11 01:53:29;;;;;;;17.42;14.15;;;23.00;1.00;;;;;;20511969;28;20042;-42
2023/09/11 02:03:29;;;;;;;17.45;14.88;;;23.00;1.00;;;;;;20509015;28;20035;-42
2023/09/11 02:13:30;;;;;;;20.05;16.92;;;22.90;1.00;;;;;;20506574;28;20038;-42
2023/09/11 02:23:30;;;;;;;19.95;17.23;;;22.90;1.00;;;;;;20509592;28;20035;-42
2023/09/11 02:33:31;;;;;;;18.93;16.23;;;23.00;1.00;;;;;;20524756;28;20035;-42
2023/09/11 02:43:32;;;;;;;20.25;16.90;;;23.10;1.00;;;;;;20518930;28;20046;-42
2023/09/11 02:53:32;;;;;;;18.75;16.73;;;23.10;1.00;;;;;;20519111;28;20062;-42
2023/09/11 03:03:33;;;;;;;22.10;18.80;;;23.10;1.00;;;;;;20517872;28;20054;-42
2023/09/11 03:13:33;;;;;;;21.80;19.55;;;23.00;1.00;;;;;;20514743;28;20043;-42
2023/09/11 03:23:34;;;;;;;26.27;20.70;;;22.80;1.00;;;;;;20516292;28;20414;-42
2023/09/11 03:33:35;;;;;;;23.40;18.68;;;22.70;1.00;;;;;;20474276;28;1093706;-42
2023/09/11 03:43:36;;;;;;;20.98;18.45;;;22.70;1.00;;;;;;20519721;28;20043;-42
2023/09/11 03:53:42;;;;;;;20.13;17.98;;;22.70;1.00;;;;;;20519199;28;20054;-42
2023/09/11 04:03:43;;;;;;;20.43;18.33;;;22.60;1.00;;;;;;20518319;28;20110;-42
2023/09/11 04:13:43;;;;;;;19.63;17.40;;;22.60;1.00;;;;;;20516709;28;20051;-42
2023/09/11 04:23:44;;;;;;;22.25;17.23;;;22.60;1.00;;;;;;20517986;28;20137;-42
2023/09/11 04:33:44;;;;;;;21.80;18.85;;;22.50;1.00;;;;;;20517019;28;20053;-42
2023/09/11 04:43:45;;;;;;;20.88;15.95;;;22.40;1.00;;;;;;20514431;28;20042;-42
2023/09/11 04:53:45;;;;;;;20.17;18.02;;;22.30;1.00;;;;;;20515674;28;20057;-42
2023/09/11 05:03:46;;;;;;;24.70;16.63;;;22.30;1.00;;;;;;20528116;28;20287;-42
2023/09/11 05:13:46;;;;;;;18.80;14.80;;;22.40;1.00;;;;;;20512065;28;20515;-42
2023/09/11 05:23:47;;;;;;;18.83;13.32;;;22.40;1.00;;;;;;20513512;28;20038;-42
2023/09/11 05:33:47;;;;;;;18.23;14.18;;;22.40;1.00;;;;;;20510389;28;20042;-42
2023/09/11 05:43:48;;;;;;;16.38;13.70;;;22.50;1.00;;;;;;20510810;28;20058;-42
2023/09/11 05:53:49;;;;;;;16.88;12.70;;;22.50;1.00;;;;;;20508402;28;20054;-42
2023/09/11 06:03:49;;;;;;;17.13;13.02;;;22.30;1.00;;;;;;20508013;28;20399;-42
2023/09/11 06:13:50;;;;;;;17.43;13.53;;;22.20;1.00;;;;;;20507445;28;20051;-42
2023/09/11 06:23:50;;;;;;;20.15;15.57;;;22.10;1.00;;;;;;20507801;28;20482;-42
2023/09/11 06:33:51;;;;;;;17.70;14.40;;;22.30;1.00;;;;;;20508541;28;20551;-42
2023/09/11 06:43:51;;;;;;;16.02;14.07;;;22.40;1.00;;;;;;20509586;28;20074;-42
2023/09/11 06:53:54;;;;;;;17.13;13.93;;;22.50;1.00;;;;;;20507035;28;20043;-42
2023/09/11 07:03:54;;;;;;;15.85;14.15;;;22.40;1.00;;;;;;20508573;28;20035;-42
2023/09/11 07:13:55;;;;;;;18.73;16.80;;;22.40;1.00;;;;;;20514049;28;20061;-42
2023/09/11 07:23:56;;;;;;;19.70;15.43;;;22.70;1.00;;;;;;20520574;28;20123;-42
2023/09/11 07:33:57;;;;;;;20.73;15.73;;;22.80;1.00;;;;;;20520362;28;20034;-42
2023/09/11 07:43:58;;;;;;;20.42;16.65;;;22.90;1.00;;;;;;20520547;28;20081;-42
2023/09/11 07:53:59;;;;;;;22.88;17.88;;;23.20;1.00;;;;;;20519262;28;20076;-42
2023/09/11 08:04:00;;;;;;;20.50;16.27;;;23.50;1.00;;;;;;20517047;28;20426;-42
2023/09/11 08:14:00;;;;;;;21.23;16.40;;;23.70;1.00;;;;;;20517331;28;20050;-42
2023/09/11 08:24:01;;;;;;;18.33;15.13;;;23.90;1.00;;;;;;20514983;28;20082;-42
2023/09/11 08:34:02;;;;;;;17.38;13.27;;;24.30;1.00;;;;;;20516571;28;20065;-42
2023/09/11 08:44:03;;;;;;;17.40;13.55;;;24.50;1.00;;;;;;20515087;28;20039;-42
2023/09/11 08:54:04;;;;;;;16.33;13.90;;;24.80;1.00;;;;;;20513208;28;20046;-42
2023/09/11 09:04:06;;;;;;;14.88;12.35;;;25.20;1.00;;;;;;20514556;28;20590;-42
2023/09/11 09:14:08;;;;;;;20.95;14.45;;;25.30;1.00;;;;;;20512861;28;20585;-42
2023/09/11 09:24:12;;;;;;;18.60;13.18;;;25.40;1.00;;;;;;20525928;28;20521;-42
2023/09/11 09:34:13;;;;;;;12.80;9.85;;;25.70;1.00;;;;;;20512225;28;20538;-42
2023/09/11 09:44:30;;;;;;;10.68;7.63;;;25.70;1.00;;;;;;20510173;28;20046;-42
2023/09/11 09:55:04;;;;;;;8.63;6.07;;;25.80;1.00;;;;;;20508753;28;20047;-42
2023/09/11 10:05:07;;;;;;;9.73;7.13;;;25.90;1.00;;;;;;20510341;28;20129;-42
2023/09/11 10:15:08;;;;;;;8.05;6.72;;;26.00;1.00;;;;;;20508242;28;20035;-42
2023/09/11 10:25:09;;;;;;;10.57;6.13;;;26.10;1.00;;;;;;20508747;28;20451;-42
2023/09/11 10:35:10;;;;;;;8.35;4.97;;;26.30;1.00;;;;;;20508659;28;20113;-42
2023/09/11 10:45:30;;;;;;;8.63;5.47;;;26.50;1.00;;;;;;20511532;28;20113;-42
2023/09/11 10:55:31;;;;;;;6.70;4.00;;;26.80;1.00;;;;;;20522424;28;20034;-42
2023/09/11 11:05:36;;;;;;;9.07;4.72;;;26.90;1.00;;;;;;20524150;28;20042;-42
2023/09/11 11:15:37;;;;;;;6.77;4.70;;;27.40;1.00;;;;;;20521056;28;20543;-42
2023/09/11 11:25:41;;;;;;;7.23;5.73;;;27.80;1.00;;;;;;20521249;28;20407;-42
2023/09/11 11:35:45;;;;;;;6.38;4.93;;;28.20;1.00;;;;;;20521040;28;20487;-42
2023/09/11 11:45:47;;;;;;;10.38;6.35;;;28.10;1.00;;;;;;20519410;28;20435;-42
2023/09/11 11:55:49;;;;;;;4.80;4.20;;;27.90;1.00;;;;;;20519552;28;20229;-43
2023/09/11 12:05:49;;;;;;;7.10;4.70;;;28.00;1.00;;;;;;20518605;28;20039;-43
2023/09/11 12:15:55;;;;;;;12.02;6.50;;;28.40;1.00;;;;;;20516336;28;20101;-43
2023/09/11 12:25:56;;;;;;;13.10;8.85;;;28.60;1.00;;;;;;20516071;28;20059;-43
2023/09/11 12:35:56;;;;;;;17.88;13.93;;;28.70;1.00;;;;;;20516853;28;20123;-43
2023/09/11 12:45:57;;;;;;;14.65;12.65;;;28.30;1.00;;;;;;20514546;28;20035;-43
2023/09/11 12:55:58;;;;;;;21.40;16.48;;;27.90;1.00;;;;;;20520495;28;20051;-43
2023/09/11 13:05:59;;;;;;;21.97;17.53;;;27.70;1.00;;;;;;20516431;28;20517;-43
2023/09/11 13:16:00;;;;;;;21.88;16.27;;;27.40;1.00;;;;;;20510205;28;20478;-43
2023/09/11 13:26:01;;;;;;;21.20;17.87;;;27.00;1.00;;;;;;20510457;28;20511;-43
2023/09/11 13:36:02;;;;;;;24.25;18.77;;;26.80;1.00;;;;;;20513080;28;20046;-43
2023/09/11 13:46:02;;;;;;;22.58;18.45;;;26.30;1.00;;;;;;20511181;28;20429;-43
2023/09/11 13:56:03;;;;;;;20.20;16.87;;;26.30;1.00;;;;;;20509517;28;20045;-43
2023/09/11 14:06:04;;;;;;;25.77;17.73;;;26.20;1.00;;;;;;20510447;28;20043;-43
2023/09/11 14:16:04;;;;;;;22.37;16.73;;;26.10;1.00;;;;;;20507151;28;20713;-43
2023/09/11 14:26:05;;;;;;;26.50;18.30;;;26.30;1.00;;;;;;20522329;28;21152;-43
2023/09/11 14:36:06;;;;;;;24.05;17.75;;;26.10;1.00;;;;;;20525616;28;20407;-43
2023/09/11 14:46:06;;;;;;;24.23;17.37;;;25.40;1.00;;;;;;20523929;28;20435;-43
2023/09/11 14:56:07;;;;;;;23.27;19.65;;;25.00;1.00;;;;;;20521673;28;20474;-43
2023/09/11 15:06:08;;;;;;;21.90;15.82;;;24.70;1.00;;;;;;20522990;28;20063;-42
2023/09/11 15:16:08;;;;;;;24.02;17.35;;;24.60;1.00;;;;;;20521366;28;20479;-43
2023/09/11 15:26:09;;;;;;;21.20;17.00;;;24.50;1.00;;;;;;20519988;28;20035;-43
2023/09/11 15:36:10;;;;;;;18.98;14.38;;;24.50;1.00;;;;;;20521568;28;20050;-43
2023/09/11 15:46:12;;;;;;;20.67;14.18;;;24.30;1.00;;;;;;20519383;28;20532;-43
2023/09/11 15:56:13;;;;;;;14.20;12.13;;;24.00;1.00;;;;;;20519069;28;20046;-43
2023/09/11 16:06:14;;;;;;;20.50;13.18;;;24.00;1.00;;;;;;20519048;28;20046;-43
2023/09/11 16:16:15;;;;;;;20.38;13.57;;;23.80;1.00;;;;;;20516357;28;20034;-43
2023/09/11 16:26:16;;;;;;;15.15;11.73;;;23.70;1.00;;;;;;20518264;28;20039;-43
2023/09/11 16:36:16;;;;;;;15.93;13.52;;;23.40;1.00;;;;;;20516103;28;20558;-43
2023/09/11 16:46:17;;;;;;;15.95;11.38;;;23.00;1.00;;;;;;20514071;28;20118;-42
2023/09/11 16:56:18;;;;;;;17.95;14.07;;;22.70;1.00;;;;;;20514813;28;20473;-43
2023/09/11 17:06:18;;;;;;;16.48;11.50;;;22.60;1.00;;;;;;20513355;28;20062;-43
2023/09/11 17:16:21;;;;;;;15.27;11.48;;;22.60;1.00;;;;;;20511804;28;20087;-42
2023/09/11 17:26:22;;;;;;;13.80;10.88;;;22.50;1.00;;;;;;20511714;28;20515;-43
2023/09/11 17:36:22;;;;;;;19.50;12.97;;;22.40;1.00;;;;;;20511699;28;20392;-43
2023/09/11 17:46:23;;;;;;;15.43;11.93;;;22.30;1.00;;;;;;20510820;28;20065;-42
2023/09/11 17:56:23;;;;;;;17.83;13.20;;;22.10;1.00;;;;;;20511330;28;20042;-42
2023/09/11 18:06:25;;;;;;;18.27;13.20;;;22.10;1.00;;;;;;20510441;28;20082;-42
2023/09/11 18:16:26;;;;;;;22.50;15.38;;;22.00;1.00;;;;;;20508065;28;20027;-43
2023/09/11 18:26:27;;;;;;;19.55;14.63;;;21.90;1.00;;;;;;20509217;28;20498;-42
2023/09/11 18:36:27;;;;;;;19.52;16.63;;;21.80;1.00;;;;;;20508939;28;20042;-43
2023/09/11 18:46:28;;;;;;;22.92;17.25;;;21.80;1.00;;;;;;20507870;28;20045;-42
2023/09/11 18:56:30;;;;;;;26.77;21.40;;;21.70;1.00;;;;;;20514602;28;20040;-43
2023/09/11 19:06:30;;;;;;;20.67;16.75;;;21.70;1.00;;;;;;20510951;28;20069;-42
2023/09/11 19:16:31;;;;;;;24.10;18.13;;;21.70;1.00;;;;;;20521165;28;20035;-43
2023/09/11 19:26:31;;;;;;;19.83;15.60;;;21.50;1.00;;;;;;20520479;28;20066;-42
2023/09/11 19:36:32;;;;;;;24.05;17.42;;;21.40;1.00;;;;;;20523030;28;20047;-42
2023/09/11 19:46:32;;;;;;;29.45;21.30;;;21.10;1.00;;;;;;20521690;28;20371;-42
2023/09/11 19:56:34;;;;;;;30.58;21.45;;;21.00;1.00;;;;;;20518556;28;20051;-42
2023/09/11 20:06:34;;;;;;;26.25;20.52;;;21.00;1.00;;;;;;20519130;28;20066;-42
2023/09/11 20:16:35;;;;;;;33.22;24.25;;;20.90;1.00;;;;;;20517675;28;20505;-42
2023/09/11 20:26:35;;;;;;;25.77;19.53;;;20.70;1.00;;;;;;20516361;28;20118;-42
2023/09/11 20:36:36;;;;;;;33.70;26.20;;;20.70;1.00;;;;;;20516572;28;21072;-42
2023/09/11 20:46:36;;;;;;;34.67;25.08;;;20.60;1.00;;;;;;20514361;28;20043;-42
2023/09/11 20:56:37;;;;;;;36.92;27.15;;;20.60;1.00;;;;;;20513667;28;20491;-46
2023/09/11 21:06:37;;;;;;;36.65;24.90;;;20.80;1.00;;;;;;20514481;28;20376;-43
2023/09/11 21:16:38;;;;;;;35.00;24.93;;;20.60;1.00;;;;;;20513150;28;20488;-42
2023/09/11 21:26:39;;;;;;;38.47;28.77;;;20.40;16.00;;;;;;20510701;28;20054;-42
2023/09/11 21:36:39;;;;;;;38.23;26.53;;;20.30;62.00;;;;;;20510203;28;20050;-42
2023/09/11 21:46:40;;;;;;;43.13;28.95;;;20.10;92.50;;;;;;20510902;28;20823;-42
2023/09/11 21:56:40;;;;;;;41.15;28.23;;;20.20;99.90;;;;;;20508930;28;20042;-42
2023/09/11 22:06:41;;;;;;;43.67;29.08;;;20.10;99.90;;;;;;20511598;28;20067;-43
2023/09/11 22:16:42;;;;;;;44.78;29.85;;;20.10;99.90;;;;;;20508866;28;20447;-44
2023/09/11 22:26:42;;;;;;;56.25;35.47;;;20.00;99.90;;;;;;20507964;28;20042;-44
2023/09/11 22:36:43;;;;;;;65.43;39.53;;;19.60;99.90;;;;;;20510019;28;20082;-44
2023/09/11 22:46:43;;;;;;;77.75;42.47;;;19.60;99.90;;;;;;20519816;28;20080;-44
2023/09/11 22:56:44;;;;;;;73.50;39.10;;;19.60;99.90;;;;;;20524502;28;20039;-44
2023/09/11 23:06:44;;;;;;;75.40;41.33;;;19.50;99.90;;;;;;20523019;28;20049;-44
2023/09/11 23:16:45;;;;;;;80.15;41.63;;;19.40;99.90;;;;;;20520715;28;20055;-44
2023/09/11 23:26:50;;;;;;;76.40;41.50;;;19.30;99.90;;;;;;20520628;28;20046;-44
2023/09/11 23:36:50;;;;;;;87.18;43.53;;;19.30;99.90;;;;;;20520267;28;20058;-45
2023/09/11 23:46:51;;;;;;;68.20;37.38;;;19.20;99.90;;;;;;20521278;28;20031;-44
2023/09/11 23:56:52;;;;;;;70.93;38.42;;;19.00;99.90;;;;;;20518417;28;20493;-44
